AirNav   Everest Fuels
 
 534 users online  

15CN Adventist Medical Center Hanford Heliport
Hanford, California, USA

GOING TO HANFORD?


FAA INFORMATION EFFECTIVE 18 JUNE 2020

Location

FAA Identifier: 15CN
Lat/Long: 36-19-23.8000N 119-40-02.0000W
36-19.396667N 119-40.033333W
36.3232778,-119.6672222
(estimated)
Elevation: 281 ft. / 86 m (estimated)
From city: 1 mile SW of HANFORD, CA
Time zone: UTC -7 (UTC -8 during Standard Time)
Zip code: 93230

Heliport Operations

Heliport use: Private use. Permission required prior to landing
Activation date: 09/2010
Control tower: no
ARTCC: OAKLAND CENTER
FSS: RANCHO MURIETA FLIGHT SERVICE STATION
Attendance: CONTINUOUS
Wind indicator: lighted
Segmented circle: no
Lights: FOR H1 PERI LGTS CALL 559-587-0550.
Beacon: white-green-yellow (heliport)

Heliport Communications

WX ASOS at HJO (2.0 nm E): 134.75 (559-585-8076)
WX AWOS-3PT at VIS (13 nm E): 119.925 (559-651-2418)
WX AWOS-3 at NLC (14 nm W): 121.575 (559-998-2336)
WX AWOS-3PT at TLR (19 nm SE): 120.0 (559-686-2613)

Nearby radio navigation aids

VOR radial/distance  VOR name  Freq  Var
VISr238/9.3VISALIA VOR/DME109.4016E
TTEr292/39.8TULE VOR/DME109.2016E

 
NDB name  Hdg/Dist  Freq  Var  ID
SALYER FARMS321/16.820516ECOR -.-. --- .-.

Heliport Services

Runway Information

Helipad H1

Dimensions: 48 x 48 ft. / 15 x 15 m
Surface: concrete, in good condition
Runway edge lights: PERI
Latitude: 36-19.396667N
Longitude: 119-40.033333W
Elevation: 281.0 ft.
Traffic pattern: leftleft

Heliport Ownership and Management from official FAA records

Ownership: Publicly-owned
Owner: ADVENTIST HEALTH
115 MALL DR
HANFORD, CA 93239
Phone 559-582-9000
Manager: RICHARD ROSE
115 MALL DR
HANFORD, CA 93239
Phone 559-582-9000
ADDITIONAL CONTACT: STEVEN LOEWEN - 559-573-6647 DAVID SANSOLIS 440 N GREENFIELD AVE, STE H HANFORD, CA 93230

Additional Remarks

FOR CD CTC FRESNO APCH AT 559-487-5405.

Instrument Procedures

There are no published instrument procedures at 15CN.

Some nearby airports with instrument procedures:

KHJO - Hanford Municipal Airport (2 nm E)
KVIS - Visalia Municipal Airport (13 nm E)
KNLC - Lemoore Naval Air Station (Reeves Field) (14 nm W)
KTLR - Mefford Field Airport (19 nm SE)
O32 - Reedley Municipal Airport (23 nm NE)
 
Loc | Ops | Rwys | IFR | FBO | Links
Com | Nav | Svcs | Stats | Notes
Aerial photo
No photo
 
Sectional chart

 
Airport distance calculator
Flying to Adventist Medical Center Hanford Heliport? Find the distance to fly.

From to 15CN

Sunrise and sunset
Times for 12-Jul-2020
 Local
(UTC-7)
 Zulu
(UTC)
Morning civil twilight05:2312:23
Sunrise05:5212:52
Sunset20:1603:16
Evening civil twilight20:4603:46

Current date and time
Zulu (UTC)  13-Jul-2020 05:03:43
Local (UTC-7)  12-Jul-2020 22:03:43
 
METAR
KHJO 
2nm E 
130453Z AUTO 31005KT 10SM CLR 33/14 A2976 RMK AO2 SLP077 T03280139
KVIS 
13nm E 
130456Z AUTO 30004KT 10SM CLR 30/16 A2977 RMK AO2 SLP081 T03000161
KNLC 
14nm W 
130456Z AUTO 31008KT 10SM CLR 28/12 A2977 RMK AO2 SLP077 T02780122
TAF
KVIS 
13nm E 
121726Z 1218/1318 VRB04KT P6SM SKC FM122300 31011KT P6SM SKC FM131000 29005KT P6SM SKC
KNLC 
14nm W 
1223/1323 33010KT 9999 FEW250 QNH2972INS TEMPO 1223/1305 35010G18KT T41/1223Z T20/1313Z FS30162
NOTAMs
Click for the latest NOTAMs
NOTAMs are issued by the DoD/FAA and will open in a separate window not controlled by AirNav.

 

 
 

Would you like to see your business listed on this page?

 If your business provides an interesting product or service to pilots, flight crews, aircraft, or users of the Adventist Medical Center Hanford Heliport, you should consider listing it here.  To start the listing process, click on the button below
 
Add a business
 

Other Pages about Adventist Medical Center Hanford Heliport

Update a link
 
Copyright © AirNav, LLC. All rights reserved. Privacy Policy  Contact